createdAt,value
2023-03-03T00:01:12.382Z,0.70
2023-03-03T00:03:41.602Z,0.75
2023-03-03T00:06:11.503Z,0.57
2023-03-03T00:08:39.504Z,0.40
2023-03-03T00:11:07.848Z,0.95
2023-03-03T00:13:45.589Z,0.50
2023-03-03T00:16:22.254Z,0.32
2023-03-03T00:18:51.931Z,0.57
2023-03-03T00:21:31.427Z,0.40
2023-03-03T00:24:22.371Z,0.28
2023-03-03T00:26:52.233Z,0.65
2023-03-03T00:29:41.920Z,0.10
2023-03-03T00:32:27.506Z,0.70
2023-03-03T00:35:02.709Z,0.20
2023-03-03T00:37:33.870Z,0.50
2023-03-03T00:40:23.856Z,0.28
2023-03-03T00:42:53.944Z,0.20
2023-03-03T00:45:31.633Z,0.30
2023-03-03T00:48:00.313Z,0.85
2023-03-03T00:50:32.774Z,0.30
2023-03-03T00:53:04.768Z,0.35
2023-03-03T00:55:33.443Z,0.13
2023-03-03T00:58:01.700Z,0.20
2023-03-03T01:00:35.006Z,0.20
2023-03-03T01:03:08.367Z,0.10
2023-03-03T01:05:37.947Z,0.60
2023-03-03T01:08:10.162Z,0.20
2023-03-03T01:10:43.057Z,0.15
2023-03-03T01:13:12.134Z,0.35
2023-03-03T01:15:41.430Z,0.20
2023-03-03T01:18:10.431Z,0.10
2023-03-03T01:20:39.835Z,0.20
2023-03-03T01:23:08.052Z,0.40
2023-03-03T01:25:36.209Z,0.20
2023-03-03T01:28:04.463Z,0.30
2023-03-03T01:30:32.637Z,0.15
2023-03-03T01:33:01.104Z,0.32
2023-03-03T01:35:30.029Z,0.10
2023-03-03T01:37:59.932Z,0.30
2023-03-03T01:40:30.170Z,0.10
2023-03-03T01:43:00.019Z,0.10
2023-03-03T01:45:30.801Z,0.50
2023-03-03T01:48:03.079Z,0.10
2023-03-03T01:50:41.103Z,0.10
2023-03-03T01:53:15.653Z,0.40
2023-03-03T01:55:45.268Z,0.30
2023-03-03T01:58:17.329Z,0.73
2023-03-03T02:00:54.828Z,0.10
2023-03-03T02:03:24.813Z,0.20
2023-03-03T02:05:57.352Z,0.25
2023-03-03T02:08:34.485Z,0.20
2023-03-03T02:11:03.292Z,1.20
2023-03-03T02:13:31.182Z,0.45
2023-03-03T02:15:59.226Z,0.10
2023-03-03T02:18:28.775Z,0.63
2023-03-03T02:21:04.259Z,0.20
2023-03-03T02:23:39.609Z,0.20
2023-03-03T02:26:11.805Z,0.65
2023-03-03T02:28:42.132Z,0.82
2023-03-03T02:31:15.895Z,0.73
2023-03-03T02:33:47.034Z,0.20
2023-03-03T02:36:16.821Z,0.30
2023-03-03T02:38:50.448Z,0.40
2023-03-03T02:41:30.103Z,0.17
2023-03-03T02:44:01.783Z,0.65
2023-03-03T02:46:34.898Z,0.20
2023-03-03T02:49:02.858Z,0.93
2023-03-03T02:51:31.103Z,0.65
2023-03-03T02:53:59.075Z,0.30
2023-03-03T02:56:31.790Z,1.23
2023-03-03T02:58:59.981Z,0.38
2023-03-03T03:01:31.821Z,0.28
2023-03-03T03:04:00.124Z,0.10
2023-03-03T03:06:28.856Z,0.40
2023-03-03T03:08:57.737Z,0.30
2023-03-03T03:11:25.791Z,0.38
2023-03-03T03:13:55.005Z,0.55
2023-03-03T03:16:24.092Z,0.55
2023-03-03T03:18:51.984Z,0.40
2023-03-03T03:21:20.574Z,0.30
2023-03-03T03:23:48.789Z,0.90
2023-03-03T03:26:16.597Z,0.10
2023-03-03T03:28:45.380Z,0.38
2023-03-03T03:31:15.406Z,0.20
2023-03-03T03:33:43.726Z,0.30
2023-03-03T03:36:12.713Z,0.40
2023-03-03T03:38:42.317Z,0.30
2023-03-03T03:41:13.287Z,0.75
2023-03-03T03:43:41.564Z,0.60
2023-03-03T03:46:10.180Z,0.43
2023-03-03T03:48:39.435Z,0.20
2023-03-03T03:51:11.994Z,0.20
2023-03-03T03:53:41.088Z,0.47
2023-03-03T03:56:09.434Z,0.30
2023-03-03T03:58:37.506Z,0.40
2023-03-03T04:01:09.969Z,0.28
2023-03-03T04:03:45.154Z,0.20
2023-03-03T04:06:17.140Z,0.40
2023-03-03T04:08:45.544Z,0.10
2023-03-03T04:11:13.532Z,0.30
2023-03-03T04:13:41.507Z,0.35
2023-03-03T04:16:10.796Z,0.50
2023-03-03T04:18:43.522Z,0.65
2023-03-03T04:21:16.084Z,0.30
2023-03-03T04:23:46.507Z,0.40
2023-03-03T04:26:14.547Z,0.65
2023-03-03T04:28:44.724Z,0.60
2023-03-03T04:31:13.040Z,1.10
2023-03-03T04:33:41.526Z,0.95
2023-03-03T04:36:10.011Z,0.77
2023-03-03T04:38:40.146Z,0.60
2023-03-03T04:41:07.928Z,1.38
2023-03-03T04:43:38.498Z,1.30
2023-03-03T04:46:06.902Z,0.40
2023-03-03T04:48:36.806Z,0.20
2023-03-03T04:51:05.816Z,0.45
2023-03-03T04:53:36.617Z,0.40
2023-03-03T04:56:06.798Z,0.88
2023-03-03T04:58:34.684Z,0.85
2023-03-03T05:01:03.050Z,1.08
2023-03-03T05:03:32.974Z,1.05
2023-03-03T05:06:01.209Z,0.68
2023-03-03T05:08:28.990Z,1.05
2023-03-03T05:10:56.879Z,0.63
2023-03-03T05:13:27.179Z,0.52
2023-03-03T05:15:56.897Z,0.95
2023-03-03T05:18:25.501Z,1.17
2023-03-03T05:20:53.748Z,0.82
2023-03-03T05:23:22.400Z,1.20
2023-03-03T05:25:50.593Z,1.05
2023-03-03T05:28:19.605Z,0.32
2023-03-03T05:30:48.914Z,0.68
2023-03-03T05:33:18.238Z,0.50
2023-03-03T05:35:46.583Z,0.35
2023-03-03T05:38:14.363Z,0.73
2023-03-03T05:40:43.768Z,0.60
2023-03-03T05:43:11.712Z,0.20
2023-03-03T05:45:39.486Z,0.20
2023-03-03T05:48:10.127Z,0.40
2023-03-03T05:50:38.933Z,0.47
2023-03-03T05:53:06.705Z,0.82
2023-03-03T05:55:34.563Z,0.35
2023-03-03T05:58:02.394Z,0.35
2023-03-03T06:00:30.185Z,0.68
2023-03-03T06:02:58.061Z,0.75
2023-03-03T06:05:27.376Z,0.25
2023-03-03T06:07:55.281Z,0.35
2023-03-03T06:10:23.187Z,0.20
2023-03-03T06:12:55.129Z,0.30
2023-03-03T06:15:23.302Z,0.20
2023-03-03T06:17:51.344Z,0.52
2023-03-03T06:20:19.296Z,3.42
2023-03-03T06:22:48.375Z,0.70
2023-03-03T06:25:16.252Z,0.63
2023-03-03T06:27:44.118Z,0.28
2023-03-03T06:30:12.874Z,0.75
2023-03-03T06:32:40.798Z,0.43
2023-03-03T06:35:09.271Z,0.70
2023-03-03T06:37:37.377Z,0.65
2023-03-03T06:40:08.149Z,2.35
2023-03-03T06:42:36.009Z,0.95
2023-03-03T06:45:04.017Z,1.33
2023-03-03T06:47:33.035Z,2.50
2023-03-03T06:50:01.238Z,1.35
2023-03-03T06:52:29.243Z,2.00
2023-03-03T06:54:59.470Z,1.90
2023-03-03T06:57:30.807Z,1.38
2023-03-03T07:00:01.445Z,0.57
2023-03-03T07:02:31.860Z,0.95
2023-03-03T07:04:59.984Z,1.25
2023-03-03T07:07:31.041Z,1.70
2023-03-03T07:09:58.913Z,1.15
2023-03-03T07:12:31.151Z,0.70
2023-03-03T07:15:13.427Z,0.30
2023-03-03T07:17:45.604Z,1.00
2023-03-03T07:20:20.566Z,0.50
2023-03-03T07:22:48.772Z,2.92
2023-03-03T07:25:24.555Z,1.20
2023-03-03T07:27:54.976Z,1.02
2023-03-03T07:30:27.396Z,1.05
2023-03-03T07:32:57.518Z,1.40
2023-03-03T07:35:39.650Z,0.95
2023-03-03T07:38:24.321Z,1.98
2023-03-03T07:40:54.218Z,1.48
2023-03-03T07:43:37.025Z,1.27
2023-03-03T07:46:24.382Z,2.10
2023-03-03T07:48:53.874Z,0.73
2023-03-03T07:51:25.511Z,0.80
2023-03-03T07:53:55.610Z,1.77
2023-03-03T07:56:30.627Z,0.90
2023-03-03T07:59:00.479Z,2.20
2023-03-03T08:01:39.794Z,0.70
2023-03-03T08:04:18.432Z,1.45
2023-03-03T08:06:55.140Z,0.22
2023-03-03T08:09:39.538Z,0.50
2023-03-03T08:12:30.908Z,1.25
2023-03-03T08:15:15.835Z,0.32
2023-03-03T08:17:48.512Z,0.38
2023-03-03T08:20:43.597Z,0.45
2023-03-03T08:23:11.808Z,0.40
2023-03-03T08:25:40.729Z,0.77
2023-03-03T08:28:08.743Z,0.63
2023-03-03T08:30:38.038Z,0.32
2023-03-03T08:33:05.945Z,0.40
2023-03-03T08:35:34.148Z,1.20
2023-03-03T08:38:02.628Z,1.10
2023-03-03T08:40:30.650Z,1.00
2023-03-03T08:42:59.207Z,1.35
2023-03-03T08:45:28.447Z,2.00
2023-03-03T08:47:59.794Z,2.85
2023-03-03T08:50:28.474Z,1.67
2023-03-03T08:52:56.899Z,3.95
2023-03-03T08:55:26.558Z,1.85
2023-03-03T08:57:55.310Z,1.80
2023-03-03T09:00:26.518Z,1.13
2023-03-03T09:02:55.555Z,1.77
2023-03-03T09:05:27.197Z,1.73
2023-03-03T09:07:55.820Z,2.05
2023-03-03T09:10:27.666Z,5.63
2023-03-03T09:12:58.309Z,3.50
2023-03-03T09:15:28.625Z,5.18
2023-03-03T09:17:59.650Z,3.72
2023-03-03T09:20:41.185Z,4.40
2023-03-03T09:23:38.240Z,3.80
2023-03-03T09:26:32.537Z,2.90
2023-03-03T09:29:18.364Z,3.33
2023-03-03T09:31:48.994Z,3.10
2023-03-03T09:34:23.506Z,4.15
2023-03-03T09:36:53.839Z,3.40
2023-03-03T09:39:24.014Z,2.92
2023-03-03T09:42:26.064Z,4.00
2023-03-03T09:45:23.376Z,3.50
2023-03-03T09:48:12.750Z,3.92
2023-03-03T09:50:50.192Z,5.25
2023-03-03T09:53:33.688Z,3.55
2023-03-03T09:56:09.347Z,5.05
2023-03-03T09:58:59.748Z,2.78
2023-03-03T10:01:44.173Z,3.97
2023-03-03T10:04:39.033Z,3.58
2023-03-03T10:07:29.665Z,2.90
2023-03-03T10:10:16.508Z,2.50
2023-03-03T10:12:53.728Z,3.13
2023-03-03T10:15:38.900Z,2.30
2023-03-03T10:18:19.355Z,1.52
2023-03-03T10:20:56.164Z,3.58
2023-03-03T10:23:40.388Z,3.67
2023-03-03T10:26:38.226Z,3.92
2023-03-03T10:29:29.802Z,2.70
2023-03-03T10:32:29.566Z,2.97
2023-03-03T10:35:43.031Z,4.13
2023-03-03T10:38:24.698Z,2.65
2023-03-03T10:40:59.056Z,5.53
2023-03-03T10:43:42.575Z,2.28
2023-03-03T10:46:29.480Z,5.65
2023-03-03T10:49:27.614Z,4.07
2023-03-03T10:52:29.703Z,3.80
2023-03-03T10:55:14.346Z,1.92
2023-03-03T10:57:52.275Z,3.17
2023-03-03T11:00:28.413Z,3.05
2023-03-03T11:03:30.711Z,2.88
2023-03-03T11:06:02.584Z,3.25
2023-03-03T11:08:37.104Z,4.15
2023-03-03T11:11:16.560Z,1.73
2023-03-03T11:13:54.166Z,1.80
2023-03-03T11:16:38.630Z,1.98
2023-03-03T11:19:23.479Z,1.17
2023-03-03T11:22:01.955Z,2.05
2023-03-03T11:24:45.951Z,1.38
2023-03-03T11:27:37.633Z,1.85
2023-03-03T11:30:25.783Z,2.22
2023-03-03T11:33:07.518Z,1.45
2023-03-03T11:35:45.340Z,0.88
2023-03-03T11:38:28.548Z,1.52
2023-03-03T11:40:59.193Z,0.77
2023-03-03T11:43:37.070Z,3.80
2023-03-03T11:46:09.996Z,1.45
2023-03-03T11:48:48.134Z,2.83
2023-03-03T11:51:23.252Z,3.35
2023-03-03T11:54:05.582Z,1.60
2023-03-03T11:56:40.246Z,2.33
2023-03-03T11:59:34.123Z,3.95
2023-03-03T12:02:12.040Z,2.95
2023-03-03T12:04:46.438Z,3.55
2023-03-03T12:07:27.718Z,4.95
2023-03-03T12:10:07.891Z,2.58
2023-03-03T12:12:42.124Z,2.90
2023-03-03T12:15:22.532Z,3.95
2023-03-03T12:18:05.539Z,3.53
2023-03-03T12:20:44.872Z,1.65
2023-03-03T12:23:43.073Z,2.17
2023-03-03T12:26:17.580Z,2.10
2023-03-03T12:28:54.100Z,2.15
2023-03-03T12:31:29.110Z,3.65
2023-03-03T12:33:59.725Z,2.35
2023-03-03T12:36:51.770Z,2.33
2023-03-03T12:39:37.526Z,1.40
2023-03-03T12:42:15.166Z,1.83
2023-03-03T12:44:48.607Z,2.97
2023-03-03T12:47:23.479Z,3.10
2023-03-03T12:50:08.296Z,2.15
2023-03-03T12:52:47.734Z,3.72
2023-03-03T12:55:26.045Z,1.30
2023-03-03T12:58:03.875Z,1.35
2023-03-03T13:00:44.660Z,1.45
2023-03-03T13:03:30.350Z,0.68
2023-03-03T13:06:07.725Z,1.92
2023-03-03T13:09:03.806Z,1.88
2023-03-03T13:11:47.106Z,2.47
2023-03-03T13:14:28.985Z,2.00
2023-03-03T13:17:09.656Z,2.92
2023-03-03T13:19:45.303Z,1.63
2023-03-03T13:22:18.633Z,1.88
2023-03-03T13:25:00.493Z,2.75
2023-03-03T13:27:34.158Z,3.25
2023-03-03T13:30:04.328Z,2.88
2023-03-03T13:32:42.632Z,2.25
2023-03-03T13:35:24.838Z,2.95
2023-03-03T13:37:56.304Z,2.72
2023-03-03T13:40:29.636Z,2.13
2023-03-03T13:43:03.003Z,3.00
2023-03-03T13:45:41.975Z,2.67
2023-03-03T13:48:24.722Z,1.92
2023-03-03T13:50:58.342Z,2.88
2023-03-03T13:53:45.498Z,2.95
2023-03-03T13:56:30.081Z,1.27
2023-03-03T13:59:08.237Z,3.88
2023-03-03T14:01:50.512Z,2.00
2023-03-03T14:04:32.754Z,3.70
2023-03-03T14:07:09.781Z,4.03
2023-03-03T14:09:50.056Z,2.17
2023-03-03T14:12:26.254Z,2.03
2023-03-03T14:15:05.401Z,2.50
2023-03-03T14:17:39.696Z,2.20
2023-03-03T14:20:21.103Z,1.50
2023-03-03T14:22:54.793Z,2.63
2023-03-03T14:25:23.253Z,2.45
2023-03-03T14:28:14.211Z,1.77
2023-03-03T14:30:43.845Z,1.00
2023-03-03T14:33:21.714Z,1.98
2023-03-03T14:36:03.712Z,1.35
2023-03-03T14:38:46.861Z,2.05
2023-03-03T14:41:20.475Z,1.02
2023-03-03T14:43:59.952Z,2.28
2023-03-03T14:46:40.674Z,1.30
2023-03-03T14:49:16.000Z,0.73
2023-03-03T14:51:46.545Z,1.10
2023-03-03T14:54:26.015Z,3.80
2023-03-03T14:57:01.026Z,1.92
2023-03-03T14:59:31.198Z,2.20
2023-03-03T15:02:13.987Z,0.88
2023-03-03T15:04:41.985Z,1.40
2023-03-03T15:07:29.862Z,1.95
2023-03-03T15:09:57.849Z,2.05
2023-03-03T15:12:27.960Z,1.98
2023-03-03T15:15:18.250Z,1.70
2023-03-03T15:17:57.597Z,1.17
2023-03-03T15:20:38.172Z,3.22
2023-03-03T15:23:29.538Z,3.80
2023-03-03T15:26:01.985Z,2.22
2023-03-03T15:28:51.873Z,3.72
2023-03-03T15:31:32.135Z,2.53
2023-03-03T15:34:08.326Z,3.33
2023-03-03T15:36:49.060Z,4.72
2023-03-03T15:39:27.948Z,6.10
2023-03-03T15:42:05.951Z,4.05
2023-03-03T15:44:47.029Z,4.72
2023-03-03T15:47:35.630Z,5.65
2023-03-03T15:50:32.542Z,6.95
2023-03-03T15:53:12.782Z,4.97
2023-03-03T15:55:51.030Z,4.20
2023-03-03T15:58:46.358Z,6.18
2023-03-03T16:01:24.697Z,6.25
2023-03-03T16:03:58.931Z,10.02
2023-03-03T16:06:45.365Z,10.60
2023-03-03T16:09:26.823Z,6.75
2023-03-03T16:12:00.872Z,10.18
2023-03-03T16:14:49.649Z,7.88
2023-03-03T16:17:27.391Z,7.03
2023-03-03T16:20:08.981Z,6.55
2023-03-03T16:22:50.112Z,6.07
2023-03-03T16:25:32.395Z,5.78
2023-03-03T16:28:06.890Z,7.75
2023-03-03T16:30:42.478Z,7.55
2023-03-03T16:33:20.200Z,7.03
2023-03-03T16:36:01.479Z,5.30
2023-03-03T16:38:37.031Z,6.32
2023-03-03T16:41:10.265Z,5.28
2023-03-03T16:43:47.271Z,4.10
2023-03-03T16:46:28.700Z,3.75
2023-03-03T16:49:03.606Z,3.97
2023-03-03T16:51:42.826Z,4.45
2023-03-03T16:54:16.877Z,4.47
2023-03-03T16:56:48.168Z,2.63
2023-03-03T16:59:37.550Z,4.47
2023-03-03T17:02:21.976Z,3.90
2023-03-03T17:04:59.082Z,4.82
2023-03-03T17:07:44.586Z,3.50
2023-03-03T17:10:26.428Z,3.00
2023-03-03T17:13:15.684Z,3.30
2023-03-03T17:16:01.560Z,3.45
2023-03-03T17:18:47.673Z,2.55
2023-03-03T17:21:31.192Z,3.67
2023-03-03T17:24:19.425Z,2.92
2023-03-03T17:27:01.516Z,3.05
2023-03-03T17:29:48.804Z,2.55
2023-03-03T17:32:53.498Z,2.15
2023-03-03T17:35:53.905Z,1.33
2023-03-03T17:38:31.632Z,2.92
2023-03-03T17:41:07.871Z,1.65
2023-03-03T17:43:54.406Z,2.05
2023-03-03T17:46:31.146Z,2.50
2023-03-03T17:49:36.599Z,2.38
2023-03-03T17:52:31.036Z,2.25
2023-03-03T17:55:40.114Z,1.00
2023-03-03T17:58:38.638Z,0.70
2023-03-03T18:01:21.219Z,2.28
2023-03-03T18:04:03.897Z,0.70
2023-03-03T18:07:05.988Z,1.70
2023-03-03T18:09:48.931Z,0.77
2023-03-03T18:12:29.772Z,1.23
2023-03-03T18:15:30.278Z,0.90
2023-03-03T18:18:22.119Z,1.92
2023-03-03T18:21:08.156Z,1.98
2023-03-03T18:23:42.682Z,1.73
2023-03-03T18:26:30.600Z,1.38
2023-03-03T18:29:22.046Z,1.05
2023-03-03T18:32:22.851Z,1.08
2023-03-03T18:35:25.411Z,1.67
2023-03-03T18:37:54.354Z,1.13
2023-03-03T18:40:35.108Z,1.05
2023-03-03T18:43:36.334Z,0.80
2023-03-03T18:46:04.278Z,2.17
2023-03-03T18:48:50.375Z,1.58
2023-03-03T18:52:06.288Z,1.60
2023-03-03T18:54:41.368Z,1.17
2023-03-03T18:57:15.872Z,1.05
2023-03-03T18:59:55.478Z,2.08
2023-03-03T19:02:35.827Z,1.25
2023-03-03T19:05:20.404Z,1.25
2023-03-03T19:07:53.355Z,0.68
2023-03-03T19:10:48.174Z,1.58
2023-03-03T19:13:44.583Z,0.93
2023-03-03T19:16:28.931Z,2.10
2023-03-03T19:19:03.956Z,0.52
2023-03-03T19:21:35.109Z,0.50
2023-03-03T19:24:09.776Z,1.00
2023-03-03T19:26:52.882Z,1.15
2023-03-03T19:30:06.293Z,0.55
2023-03-03T19:33:01.667Z,0.75
2023-03-03T19:35:38.026Z,1.13
2023-03-03T19:38:23.113Z,0.73
2023-03-03T19:41:00.818Z,0.35
2023-03-03T19:43:44.599Z,0.20
2023-03-03T19:46:26.820Z,0.20
2023-03-03T19:49:05.738Z,0.38
2023-03-03T19:51:42.003Z,0.30
2023-03-03T19:54:26.670Z,0.30
2023-03-03T19:56:57.332Z,0.10
2023-03-03T19:59:34.863Z,0.38
2023-03-03T20:02:37.678Z,0.90
2023-03-03T20:05:20.466Z,0.65
2023-03-03T20:07:59.282Z,0.15
2023-03-03T20:10:42.901Z,0.20
2023-03-03T20:13:26.916Z,0.68
2023-03-03T20:16:03.722Z,0.22
2023-03-03T20:18:58.659Z,0.55
2023-03-03T20:21:34.052Z,0.20
2023-03-03T20:24:23.612Z,0.93
2023-03-03T20:26:58.861Z,0.10
2023-03-03T20:29:55.241Z,0.30
2023-03-03T20:32:33.720Z,0.20
2023-03-03T20:35:10.061Z,0.20
2023-03-03T20:37:47.252Z,0.10
2023-03-03T20:40:27.176Z,0.85
2023-03-03T20:43:06.331Z,0.28
2023-03-03T20:45:46.741Z,0.20
2023-03-03T20:48:33.363Z,0.10
2023-03-03T20:51:08.617Z,0.28
2023-03-03T20:53:45.460Z,0.88
2023-03-03T20:56:18.335Z,0.10
2023-03-03T20:59:05.936Z,0.20
2023-03-03T21:01:41.367Z,0.47
2023-03-03T21:04:20.009Z,0.45
2023-03-03T21:06:48.714Z,0.10
2023-03-03T21:09:24.866Z,0.10
2023-03-03T21:11:53.085Z,0.13
2023-03-03T21:14:24.152Z,0.30
2023-03-03T21:16:54.410Z,0.10
2023-03-03T21:19:29.108Z,0.10
2023-03-03T21:21:58.510Z,0.13
2023-03-03T21:24:49.977Z,0.10
2023-03-03T21:27:29.976Z,0.73
2023-03-03T21:30:10.434Z,0.03
2023-03-03T21:32:40.399Z,0.10
2023-03-03T21:35:11.003Z,0.10
2023-03-03T21:37:49.481Z,0.10
2023-03-03T21:40:23.236Z,0.10
2023-03-03T21:42:51.382Z,1.02
2023-03-03T21:45:21.219Z,0.10
2023-03-03T21:47:49.614Z,0.10
2023-03-03T21:50:20.260Z,0.00
2023-03-03T21:52:48.476Z,0.00
2023-03-03T21:55:16.620Z,0.60
2023-03-03T21:57:44.993Z,0.77
2023-03-03T22:00:13.999Z,0.00
2023-03-03T22:02:43.199Z,0.00
2023-03-03T22:05:12.006Z,0.10
2023-03-03T22:07:44.183Z,0.70
2023-03-03T22:10:12.917Z,0.10
2023-03-03T22:12:40.753Z,0.00
2023-03-03T22:15:09.225Z,0.10
2023-03-03T22:17:37.027Z,0.00
2023-03-03T22:20:07.447Z,0.10
2023-03-03T22:22:35.461Z,0.00
2023-03-03T22:25:06.081Z,0.03
2023-03-03T22:27:34.680Z,0.00
2023-03-03T22:30:03.042Z,0.55
2023-03-03T22:32:30.902Z,0.00
2023-03-03T22:34:59.555Z,0.00
2023-03-03T22:37:28.761Z,0.00
2023-03-03T22:39:58.793Z,0.00
2023-03-03T22:42:26.560Z,0.10
2023-03-03T22:44:54.515Z,0.30
2023-03-03T22:47:22.552Z,0.00
2023-03-03T22:49:50.545Z,0.00
2023-03-03T22:52:18.268Z,0.00
2023-03-03T22:54:47.615Z,0.00
2023-03-03T22:57:15.870Z,0.20
2023-03-03T22:59:43.904Z,0.30
2023-03-03T23:02:11.689Z,0.00
2023-03-03T23:04:39.753Z,0.00
2023-03-03T23:07:07.836Z,0.00
2023-03-03T23:09:35.678Z,0.20
2023-03-03T23:12:05.359Z,0.00
2023-03-03T23:14:33.231Z,0.00
2023-03-03T23:17:01.142Z,0.50
2023-03-03T23:19:29.007Z,0.00
2023-03-03T23:21:56.867Z,0.00
2023-03-03T23:24:24.775Z,0.10
2023-03-03T23:26:56.857Z,0.00
2023-03-03T23:29:26.196Z,0.00
2023-03-03T23:31:54.164Z,0.15
2023-03-03T23:34:22.206Z,0.00
2023-03-03T23:36:50.074Z,0.00
2023-03-03T23:39:17.921Z,0.00
2023-03-03T23:41:46.099Z,0.00
2023-03-03T23:44:14.196Z,0.00
2023-03-03T23:46:43.525Z,0.10
2023-03-03T23:49:11.790Z,0.00
2023-03-03T23:51:39.731Z,0.00
2023-03-03T23:54:07.550Z,0.63
2023-03-03T23:56:35.574Z,0.00
2023-03-03T23:59:03.483Z,0.00
